Time;durP1;ratioP1;P1;durP2;ratioP2;P2;SDS_P1;SDS_P2;PMS_P1;PMS_P2;Temp;Humidity;BMP_temperature;BMP_pressure;BME280_temperature;BME280_humidity;BME280_pressure;Samples;Min_cycle;Max_cycle;Signal;HPM_P1;HPM_P2
2022/08/23 00:02:07;;;;;;;1.40;0.70;;;20.40;84.50;;;;;;6132603;23;20017;-80
2022/08/23 00:04:37;;;;;;;3.28;1.40;;;20.40;84.50;;;;;;6158038;23;20006;-80
2022/08/23 00:07:05;;;;;;;2.28;0.65;;;20.40;84.70;;;;;;6157694;23;20002;-80
2022/08/23 00:09:31;;;;;;;2.85;0.82;;;20.40;84.80;;;;;;6157415;23;20014;-80
2022/08/23 00:12:14;;;;;;;3.28;0.82;;;20.30;84.80;;;;;;6162720;23;20017;-80
2022/08/23 00:14:45;;;;;;;2.08;0.50;;;20.30;85.10;;;;;;6154064;23;20009;-80
2022/08/23 00:17:11;;;;;;;1.15;0.45;;;20.30;85.10;;;;;;6170654;23;20001;-79
2022/08/23 00:19:39;;;;;;;1.80;0.65;;;20.20;85.20;;;;;;6143831;23;20008;-79
2022/08/23 00:22:06;;;;;;;2.17;0.50;;;20.20;85.30;;;;;;6176233;23;19997;-79
2022/08/23 00:24:33;;;;;;;1.63;0.50;;;20.10;85.30;;;;;;6177359;23;20402;-79
2022/08/23 00:27:06;;;;;;;1.83;0.50;;;20.10;85.50;;;;;;6138006;23;20005;-79
2022/08/23 00:29:51;;;;;;;1.70;0.50;;;20.00;85.70;;;;;;6164194;23;20001;-79
2022/08/23 00:32:24;;;;;;;3.25;0.70;;;20.00;86.10;;;;;;6165847;23;20014;-80
2022/08/23 00:34:51;;;;;;;1.27;0.50;;;19.90;86.20;;;;;;6163718;23;20010;-79
2022/08/23 00:37:18;;;;;;;1.30;0.40;;;19.80;86.40;;;;;;6130237;23;20002;-79
2022/08/23 00:39:45;;;;;;;1.67;0.50;;;19.80;86.60;;;;;;6129729;23;20015;-79
2022/08/23 00:48:21;;;;;;;1.67;0.50;;;19.70;87.00;;;;;;6169066;23;20009;-79
2022/08/23 00:51:00;;;;;;;1.60;0.50;;;19.70;87.20;;;;;;6134333;23;20227;-80
2022/08/23 00:53:32;;;;;;;2.38;0.52;;;19.60;87.60;;;;;;6131635;23;20010;-80
2022/08/23 00:56:02;;;;;;;2.17;0.52;;;19.50;87.60;;;;;;6166884;23;20012;-79
2022/08/23 00:58:30;;;;;;;1.85;0.45;;;19.50;87.80;;;;;;6159145;23;20012;-80
2022/08/23 01:00:58;;;;;;;1.80;0.50;;;19.50;87.90;;;;;;6159206;23;20013;-80
2022/08/23 01:03:27;;;;;;;1.42;0.40;;;19.50;88.00;;;;;;6133814;23;20016;-80
2022/08/23 01:06:09;;;;;;;1.73;0.60;;;19.40;88.20;;;;;;6133458;23;20010;-80
2022/08/23 01:08:38;;;;;;;1.80;0.50;;;19.40;88.40;;;;;;6158476;23;20006;-80
2022/08/23 01:11:24;;;;;;;2.08;0.60;;;19.40;88.30;;;;;;6158584;23;20005;-80
2022/08/23 01:13:57;;;;;;;2.92;0.50;;;19.40;88.60;;;;;;6142702;23;20010;-80
2022/08/23 01:16:32;;;;;;;2.50;0.43;;;19.40;88.60;;;;;;6142608;23;20016;-80
2022/08/23 01:19:01;;;;;;;1.55;0.47;;;19.40;88.60;;;;;;6168548;23;20389;-80
2022/08/23 01:21:39;;;;;;;2.22;0.80;;;19.40;89.30;;;;;;6155760;23;20358;-80
2022/08/23 01:24:07;;;;;;;2.70;0.55;;;19.40;88.80;;;;;;6167524;23;20485;-80
2022/08/23 01:26:34;;;;;;;1.63;0.50;;;19.30;88.80;;;;;;6156329;23;20012;-80
2022/08/23 01:29:03;;;;;;;1.35;0.63;;;19.30;89.00;;;;;;6133593;23;20341;-80
2022/08/23 01:31:32;;;;;;;1.40;0.55;;;19.20;89.10;;;;;;6158038;23;20005;-79
2022/08/23 01:34:06;;;;;;;1.92;0.70;;;19.20;89.10;;;;;;6157821;23;20032;-80
2022/08/23 01:36:34;;;;;;;1.23;0.50;;;19.20;89.40;;;;;;6143672;23;20002;-80
2022/08/23 01:39:02;;;;;;;1.10;0.38;;;19.20;89.40;;;;;;6134526;23;20016;-80
2022/08/23 01:41:30;;;;;;;2.10;0.50;;;19.10;89.50;;;;;;6158840;23;20017;-80
2022/08/23 01:43:56;;;;;;;1.10;0.40;;;19.10;89.40;;;;;;6157747;23;20090;-80
2022/08/23 01:46:25;;;;;;;1.85;0.60;;;19.10;89.50;;;;;;6108623;23;20012;-79
2022/08/23 01:48:57;;;;;;;2.22;0.50;;;19.10;89.70;;;;;;6157063;23;20401;-79
2022/08/23 01:51:24;;;;;;;3.33;0.80;;;19.00;89.80;;;;;;6131790;23;20013;-79
2022/08/23 01:53:51;;;;;;;1.73;0.60;;;19.00;89.90;;;;;;6156794;23;20013;-79
2022/08/23 01:56:19;;;;;;;2.33;0.70;;;19.00;90.00;;;;;;6155668;23;20001;-79
2022/08/23 01:58:49;;;;;;;2.58;0.60;;;19.00;90.00;;;;;;6132115;23;20006;-80
2022/08/23 02:01:17;;;;;;;2.28;0.50;;;18.90;90.00;;;;;;6132610;23;20019;-80
2022/08/23 02:03:44;;;;;;;1.40;0.60;;;19.00;90.10;;;;;;6157033;23;20013;-79
2022/08/23 02:06:11;;;;;;;1.98;0.60;;;19.00;90.20;;;;;;6133095;23;20006;-80
2022/08/23 02:11:27;;;;;;;2.35;0.50;;;18.90;90.30;;;;;;6166787;23;20005;-79
2022/08/23 02:13:57;;;;;;;1.20;0.60;;;18.90;90.30;;;;;;6132430;23;20009;-79
2022/08/23 02:16:37;;;;;;;3.22;0.80;;;18.90;90.40;;;;;;6107805;23;20005;-79
2022/08/23 02:19:06;;;;;;;1.77;0.77;;;18.80;90.50;;;;;;6155589;23;20344;-79
2022/08/23 02:21:34;;;;;;;1.80;0.65;;;18.80;90.60;;;;;;6156467;23;20472;-80
2022/08/23 02:24:10;;;;;;;3.28;0.60;;;18.70;90.60;;;;;;6157152;23;20471;-80
2022/08/23 02:26:41;;;;;;;1.98;0.50;;;18.80;90.80;;;;;;6165647;23;20013;-80
2022/08/23 02:29:08;;;;;;;3.28;0.80;;;18.80;90.80;;;;;;6140330;23;20346;-79
2022/08/23 02:31:34;;;;;;;1.42;0.60;;;18.70;90.80;;;;;;6130806;23;20014;-80
2022/08/23 02:34:01;;;;;;;1.40;0.65;;;18.70;90.80;;;;;;6130506;23;20017;-79
2022/08/23 02:36:30;;;;;;;2.45;0.60;;;18.70;90.80;;;;;;6130896;23;20005;-79
2022/08/23 02:38:57;;;;;;;2.08;0.52;;;18.70;90.90;;;;;;6130841;23;20008;-79
2022/08/23 02:41:24;;;;;;;1.90;0.75;;;18.70;91.00;;;;;;6155198;23;20010;-79
2022/08/23 02:43:53;;;;;;;3.15;1.13;;;18.70;91.20;;;;;;6156059;23;20019;-80
2022/08/23 02:46:23;;;;;;;2.22;0.80;;;18.70;91.20;;;;;;6156423;23;20016;-79
2022/08/23 02:48:51;;;;;;;5.57;1.92;;;18.70;91.20;;;;;;6155269;23;20002;-79
2022/08/23 02:51:19;;;;;;;3.50;1.05;;;18.70;91.50;;;;;;6130613;23;20337;-80
2022/08/23 02:53:45;;;;;;;2.22;1.00;;;18.70;91.50;;;;;;6132029;23;20005;-80
2022/08/23 02:56:12;;;;;;;3.25;1.10;;;18.70;91.50;;;;;;6157444;23;20005;-79
2022/08/23 02:58:39;;;;;;;2.58;0.90;;;18.70;91.50;;;;;;6156965;23;20008;-80
2022/08/23 03:01:17;;;;;;;3.90;0.70;;;18.70;91.50;;;;;;6132855;23;20012;-78
2022/08/23 03:03:44;;;;;;;2.33;0.70;;;18.70;91.70;;;;;;6165743;23;20010;-80
2022/08/23 03:06:13;;;;;;;1.58;0.60;;;18.70;91.70;;;;;;6132515;23;20006;-80
2022/08/23 03:08:40;;;;;;;1.70;0.60;;;18.60;91.70;;;;;;6131904;23;20017;-80
2022/08/23 03:11:11;;;;;;;3.03;1.23;;;18.60;91.80;;;;;;6131548;23;20009;-79
2022/08/23 03:13:39;;;;;;;1.88;0.90;;;18.60;91.90;;;;;;6157105;23;20002;-80
2022/08/23 03:16:07;;;;;;;2.10;0.80;;;18.60;91.90;;;;;;6106586;23;20005;-80
2022/08/23 03:18:35;;;;;;;2.25;0.90;;;18.60;92.00;;;;;;6157921;23;20015;-78
2022/08/23 03:21:03;;;;;;;1.30;0.70;;;18.60;92.10;;;;;;6155754;23;20009;-79
2022/08/23 03:23:29;;;;;;;2.80;0.90;;;18.60;92.10;;;;;;6156590;23;20012;-80
2022/08/23 03:25:57;;;;;;;3.50;0.88;;;18.60;92.10;;;;;;6157677;23;20341;-80
2022/08/23 03:28:28;;;;;;;1.90;0.70;;;18.60;92.10;;;;;;6142783;23;20009;-79
2022/08/23 03:30:55;;;;;;;1.88;0.68;;;18.50;92.10;;;;;;6132785;23;20063;-80
2022/08/23 03:33:22;;;;;;;1.85;0.80;;;18.60;92.10;;;;;;6132951;23;20009;-79
2022/08/23 03:35:49;;;;;;;3.40;0.90;;;18.50;92.20;;;;;;6108289;23;20010;-80
2022/08/23 03:38:18;;;;;;;3.30;0.80;;;18.60;92.20;;;;;;6131182;23;20016;-80
2022/08/23 03:40:45;;;;;;;1.23;0.57;;;18.50;92.30;;;;;;6156516;23;20450;-79
2022/08/23 03:43:13;;;;;;;2.47;0.82;;;18.60;92.30;;;;;;6131383;23;20492;-79
2022/08/23 03:45:39;;;;;;;2.47;0.77;;;18.60;92.40;;;;;;6166331;23;20007;-79
2022/08/23 03:48:07;;;;;;;2.10;0.70;;;18.50;92.40;;;;;;6155932;23;20012;-80
2022/08/23 03:50:34;;;;;;;1.55;0.60;;;18.50;92.50;;;;;;6105837;23;20066;-80
2022/08/23 03:53:01;;;;;;;2.08;0.63;;;18.50;92.60;;;;;;6105807;23;20009;-79
2022/08/23 03:55:28;;;;;;;2.60;0.80;;;18.40;92.60;;;;;;6131814;23;20001;-80
2022/08/23 03:57:57;;;;;;;1.77;0.63;;;18.40;92.70;;;;;;6155244;23;20016;-80
2022/08/23 04:00:25;;;;;;;2.45;0.60;;;18.30;92.70;;;;;;6155354;23;20002;-78
2022/08/23 04:02:53;;;;;;;1.83;0.70;;;18.30;92.80;;;;;;6106011;23;20028;-79
2022/08/23 04:05:21;;;;;;;2.55;0.90;;;18.30;92.90;;;;;;6153970;23;20012;-79
2022/08/23 04:08:09;;;;;;;1.88;0.65;;;18.20;93.00;;;;;;6128642;23;20009;-79
2022/08/23 04:10:38;;;;;;;2.47;0.80;;;18.20;93.10;;;;;;6155109;23;20016;-79
2022/08/23 04:13:07;;;;;;;1.88;0.70;;;18.20;93.10;;;;;;6155746;23;20009;-79
2022/08/23 04:15:34;;;;;;;1.40;0.70;;;18.10;93.10;;;;;;6156528;23;20009;-79
2022/08/23 04:18:02;;;;;;;3.20;0.77;;;18.10;93.10;;;;;;6153937;23;20012;-79
2022/08/23 04:20:29;;;;;;;1.95;0.80;;;18.10;93.20;;;;;;6130285;23;20009;-80
2022/08/23 04:22:59;;;;;;;2.03;0.90;;;18.10;93.20;;;;;;6131115;23;20013;-80
2022/08/23 04:25:30;;;;;;;1.63;0.98;;;18.00;93.40;;;;;;6131643;23;20020;-79
2022/08/23 04:27:58;;;;;;;2.15;0.80;;;18.00;93.40;;;;;;6130319;23;20009;-80
2022/08/23 04:30:24;;;;;;;1.83;0.90;;;18.00;93.50;;;;;;6130073;23;20036;-79
2022/08/23 04:32:52;;;;;;;1.63;0.90;;;18.00;93.60;;;;;;6153985;23;20020;-78
2022/08/23 04:35:18;;;;;;;3.67;0.98;;;18.00;93.70;;;;;;6154318;23;20002;-80
2022/08/23 04:37:44;;;;;;;1.80;0.90;;;18.00;93.70;;;;;;6130583;23;20010;-80
2022/08/23 04:42:57;;;;;;;1.88;1.00;;;18.00;93.80;;;;;;6109470;23;20006;-81
2022/08/23 04:45:25;;;;;;;1.88;1.02;;;18.00;93.80;;;;;;6135810;23;20464;-81
2022/08/23 04:47:52;;;;;;;2.63;1.45;;;18.10;93.90;;;;;;6159977;23;20002;-83
2022/08/23 04:50:18;;;;;;;3.10;1.70;;;18.10;93.90;;;;;;6159739;23;20016;-82
2022/08/23 04:53:03;;;;;;;2.42;1.95;;;18.10;94.00;;;;;;6160960;23;20009;-80
2022/08/23 04:55:36;;;;;;;2.83;1.98;;;18.20;94.00;;;;;;6170831;23;20220;-82
2022/08/23 04:58:06;;;;;;;3.05;1.85;;;18.20;94.10;;;;;;6161377;23;20327;-82
2022/08/23 05:00:40;;;;;;;3.28;1.80;;;18.30;94.20;;;;;;6163193;23;20012;-82
2022/08/23 05:03:06;;;;;;;5.50;2.55;;;18.30;94.20;;;;;;6138289;23;20444;-84
2022/08/23 05:05:32;;;;;;;3.97;2.50;;;18.30;94.30;;;;;;6165357;23;20009;-82
2022/08/23 05:07:59;;;;;;;3.28;2.08;;;18.40;94.40;;;;;;6162750;23;20013;-81
2022/08/23 05:10:27;;;;;;;3.42;1.98;;;18.40;94.40;;;;;;6111018;23;20590;-81
2022/08/23 05:12:54;;;;;;;4.75;1.73;;;18.40;94.50;;;;;;6159555;23;20009;-81
2022/08/23 05:15:21;;;;;;;3.50;1.42;;;18.50;94.50;;;;;;6159348;23;20020;-81
2022/08/23 05:17:54;;;;;;;3.95;2.00;;;18.50;94.60;;;;;;6157789;23;20480;-82
2022/08/23 05:20:21;;;;;;;4.47;2.38;;;18.60;94.60;;;;;;6129093;23;20013;-82
2022/08/23 05:22:49;;;;;;;3.63;2.30;;;18.60;94.70;;;;;;6129715;23;20008;-80
2022/08/23 05:25:51;;;;;;;3.80;2.05;;;18.60;94.80;;;;;;6148267;23;20013;-81
2022/08/23 05:28:33;;;;;;;4.03;2.28;;;18.70;95.00;;;;;;6129086;23;20002;-79
2022/08/23 05:31:02;;;;;;;4.38;3.00;;;18.80;95.00;;;;;;6153553;23;20553;-80
2022/08/23 05:33:34;;;;;;;2.50;1.40;;;18.90;95.10;;;;;;6132276;23;20028;-80
2022/08/23 05:36:03;;;;;;;4.07;1.45;;;18.90;95.00;;;;;;6157554;23;20003;-81
2022/08/23 05:38:30;;;;;;;3.95;2.17;;;19.10;95.00;;;;;;6156955;23;19998;-81
2022/08/23 05:41:00;;;;;;;3.33;1.92;;;19.20;95.00;;;;;;6132422;23;20382;-81
2022/08/23 05:43:28;;;;;;;3.47;1.67;;;19.40;95.10;;;;;;6131738;23;20013;-81
2022/08/23 05:46:10;;;;;;;3.90;1.80;;;19.50;95.10;;;;;;6156775;23;20021;-82
2022/08/23 05:48:45;;;;;;;4.15;1.70;;;19.60;95.10;;;;;;6131390;23;20337;-82
2022/08/23 05:51:19;;;;;;;3.53;1.85;;;19.70;95.00;;;;;;6158679;23;20337;-80
2022/08/23 05:53:47;;;;;;;5.38;2.05;;;19.70;95.00;;;;;;6130870;23;20013;-82
2022/08/23 05:56:19;;;;;;;3.33;2.22;;;19.80;95.00;;;;;;6131224;23;20006;-81
2022/08/23 05:58:46;;;;;;;3.78;2.25;;;19.90;95.10;;;;;;6129228;23;20088;-79
2022/08/23 06:01:14;;;;;;;4.82;2.20;;;20.00;95.00;;;;;;6130357;23;20009;-80
2022/08/23 06:03:42;;;;;;;4.32;2.08;;;20.10;95.00;;;;;;6163999;23;20002;-80
2022/08/23 06:06:10;;;;;;;5.10;2.20;;;20.30;94.90;;;;;;6130443;23;20009;-79
2022/08/23 06:08:39;;;;;;;4.82;3.28;;;20.60;94.80;;;;;;6156891;23;20009;-79
2022/08/23 06:11:12;;;;;;;5.22;3.15;;;20.80;94.50;;;;;;6132192;23;20005;-80
2022/08/23 06:13:44;;;;;;;4.10;2.83;;;21.10;94.30;;;;;;6106758;23;20016;-80
2022/08/23 06:16:12;;;;;;;5.97;2.67;;;21.40;94.10;;;;;;6162983;23;20002;-80
2022/08/23 06:18:39;;;;;;;6.57;3.70;;;21.70;93.90;;;;;;6161843;23;20012;-79
2022/08/23 06:21:25;;;;;;;5.75;4.95;;;22.00;93.60;;;;;;6160305;23;20005;-80
2022/08/23 06:23:52;;;;;;;5.93;4.30;;;22.30;93.30;;;;;;6161467;23;20015;-81
2022/08/23 06:26:24;;;;;;;5.22;3.50;;;22.50;93.10;;;;;;6160841;23;20001;-80
2022/08/23 06:28:54;;;;;;;5.38;3.10;;;22.80;92.90;;;;;;6170715;23;20006;-81
2022/08/23 06:34:18;;;;;;;5.22;4.03;;;23.40;92.30;;;;;;6158874;23;20018;-81
2022/08/23 06:37:14;;;;;;;4.65;3.40;;;23.70;91.90;;;;;;6130870;23;20476;-82
2022/08/23 06:39:59;;;;;;;4.50;3.10;;;24.00;91.60;;;;;;6171054;23;20011;-82
2022/08/23 06:42:58;;;;;;;3.70;2.42;;;24.30;91.20;;;;;;6140199;23;20005;-82
2022/08/23 06:45:28;;;;;;;4.55;2.67;;;24.60;91.00;;;;;;6174280;23;20013;-81
2022/08/23 06:47:56;;;;;;;4.20;2.17;;;24.80;90.60;;;;;;6137225;23;20020;-81
2022/08/23 06:50:22;;;;;;;5.30;4.13;;;25.00;90.40;;;;;;6137279;23;20006;-82
2022/08/23 06:53:07;;;;;;;5.88;3.08;;;25.20;90.00;;;;;;6132284;23;20005;-81
2022/08/23 06:55:59;;;;;;;3.95;2.45;;;25.50;89.60;;;;;;6156408;23;20341;-81
2022/08/23 06:58:32;;;;;;;4.72;2.50;;;25.80;88.80;;;;;;6129720;23;20014;-81
2022/08/23 07:01:20;;;;;;;5.78;2.45;;;26.20;87.40;;;;;;6129698;23;20001;-82
2022/08/23 07:04:04;;;;;;;4.63;2.42;;;26.40;86.40;;;;;;6152010;23;20017;-81
2022/08/23 07:07:07;;;;;;;4.00;2.38;;;26.40;85.40;;;;;;6153326;23;20009;-81
2022/08/23 07:09:35;;;;;;;4.07;2.25;;;26.30;84.90;;;;;;6155238;23;20014;-81
2022/08/23 07:12:02;;;;;;;4.00;2.28;;;26.20;84.90;;;;;;6130470;23;20016;-82
2022/08/23 07:14:31;;;;;;;4.53;2.40;;;26.10;84.90;;;;;;6128851;23;20009;-81
2022/08/23 07:17:02;;;;;;;5.93;3.35;;;26.00;85.10;;;;;;6153587;23;20017;-81
2022/08/23 07:19:31;;;;;;;5.30;2.40;;;26.00;85.20;;;;;;6152244;23;20006;-81
2022/08/23 07:21:59;;;;;;;5.32;2.75;;;25.90;85.00;;;;;;6153782;23;19997;-82
2022/08/23 07:24:26;;;;;;;5.05;3.00;;;25.80;85.20;;;;;;6157632;23;20036;-81
2022/08/23 07:26:53;;;;;;;6.68;4.90;;;25.80;85.30;;;;;;6134649;23;20065;-82
2022/08/23 07:29:24;;;;;;;6.43;4.30;;;25.90;85.30;;;;;;6158990;23;20015;-82
2022/08/23 07:31:53;;;;;;;4.60;3.72;;;25.90;85.00;;;;;;6132645;23;20478;-83
2022/08/23 07:34:21;;;;;;;5.05;3.03;;;26.00;84.80;;;;;;6155367;23;20476;-82
2022/08/23 07:36:48;;;;;;;5.30;2.90;;;26.00;84.70;;;;;;6129902;23;20005;-82
2022/08/23 07:39:16;;;;;;;6.55;3.63;;;26.10;84.60;;;;;;6156734;23;20008;-82
2022/08/23 07:41:43;;;;;;;6.03;3.33;;;26.10;84.30;;;;;;6155947;23;20028;-83
2022/08/23 07:44:10;;;;;;;3.75;2.35;;;26.20;84.10;;;;;;6143793;23;20014;-82
2022/08/23 07:46:40;;;;;;;4.78;2.83;;;26.30;84.10;;;;;;6169329;23;20009;-81
2022/08/23 07:49:10;;;;;;;5.22;2.50;;;26.30;83.60;;;;;;6179021;23;19993;-86
2022/08/23 07:51:46;;;;;;;5.28;3.05;;;26.30;83.60;;;;;;6191821;23;19998;-84
2022/08/23 07:54:14;;;;;;;8.82;2.80;;;26.30;83.30;;;;;;6131190;23;20008;-83
2022/08/23 07:56:58;;;;;;;6.68;2.72;;;26.30;83.00;;;;;;6155799;23;20049;-85
2022/08/23 08:02:46;;;;;;;;;;;26.50;82.50;;;;;;6142358;23;20010;-82
2022/08/23 08:05:19;;;;;;;9.80;6.05;;;26.60;82.40;;;;;;6170133;23;19905;-82
2022/08/23 08:07:45;;;;;;;8.23;5.15;;;26.70;82.30;;;;;;6133632;23;20181;-82
2022/08/23 08:10:12;;;;;;;5.22;3.83;;;26.80;81.50;;;;;;6110549;23;20009;-81
2022/08/23 08:12:39;;;;;;;6.30;3.85;;;26.90;81.30;;;;;;6140292;23;20349;-82
2022/08/23 08:15:15;;;;;;;7.80;3.70;;;27.10;81.00;;;;;;6185265;23;20025;-83
2022/08/23 08:17:47;;;;;;;6.80;3.22;;;27.20;80.50;;;;;;6204646;23;20073;-83
2022/08/23 08:20:18;;;;;;;5.28;2.33;;;27.30;79.60;;;;;;6147801;23;20278;-82
2022/08/23 08:23:06;;;;;;;5.43;2.90;;;27.50;79.70;;;;;;6163831;23;19999;-85
2022/08/23 08:26:03;;;;;;;5.55;2.33;;;27.60;79.10;;;;;;6134115;23;20061;-84
2022/08/23 08:28:30;;;;;;;3.78;1.98;;;27.70;78.60;;;;;;6151402;23;20021;-83
2022/08/23 08:31:44;;;;;;;4.53;2.08;;;27.80;78.50;;;;;;6168630;23;20006;-83
2022/08/23 08:34:25;;;;;;;10.45;3.05;;;27.90;78.50;;;;;;6118628;23;20009;-81
2022/08/23 08:36:55;;;;;;;4.97;1.67;;;28.10;77.20;;;;;;6154028;23;20006;-81
2022/08/23 08:39:31;;;;;;;4.13;1.73;;;28.20;76.80;;;;;;6155413;23;20012;-80
2022/08/23 08:42:30;;;;;;;5.60;2.17;;;28.30;76.80;;;;;;6155620;23;20445;-81
2022/08/23 08:45:21;;;;;;;4.35;2.10;;;28.50;76.20;;;;;;6130173;23;20013;-82
2022/08/23 08:48:01;;;;;;;4.05;1.65;;;28.70;76.00;;;;;;6129818;23;20349;-82
2022/08/23 08:54:06;;;;;;;5.10;2.00;;;28.80;75.20;;;;;;6127108;23;20017;-84
2022/08/23 09:00:40;;;;;;;6.88;3.70;;;29.00;74.40;;;;;;6061684;23;20012;-85
2022/08/23 09:08:52;;;;;;;5.78;1.83;;;29.20;73.10;;;;;;6131216;23;20017;-86
2022/08/23 09:11:31;;;;;;;2.75;1.42;;;29.40;72.50;;;;;;6052628;23;20020;-84
2022/08/23 09:18:31;;;;;;;3.75;1.23;;;29.80;72.00;;;;;;6100196;23;20020;-84
2022/08/23 09:21:09;;;;;;;6.03;3.67;;;29.90;71.10;;;;;;6129076;23;20021;-84
2022/08/23 09:27:53;;;;;;;4.45;1.48;;;30.10;70.00;;;;;;6130137;23;20008;-84
2022/08/23 09:38:25;;;;;;;3.80;1.20;;;30.40;68.00;;;;;;6129698;23;20322;-83
2022/08/23 09:41:40;;;;;;;3.63;1.27;;;30.40;68.10;;;;;;6101926;23;20450;-84
2022/08/23 09:44:57;;;;;;;3.15;1.05;;;30.50;68.10;;;;;;6124728;23;20446;-83
2022/08/23 09:47:52;;;;;;;3.03;0.80;;;30.70;67.00;;;;;;6079888;23;20010;-84
2022/08/23 09:50:56;;;;;;;7.03;1.13;;;30.80;66.50;;;;;;6102538;23;20006;-84
2022/08/23 09:53:27;;;;;;;2.45;1.20;;;30.80;65.30;;;;;;6081008;23;20006;-84
2022/08/23 09:56:30;;;;;;;3.60;1.20;;;30.90;65.40;;;;;;6104848;23;20018;-84
2022/08/23 10:00:03;;;;;;;5.07;1.20;;;31.00;64.40;;;;;;6119110;23;20010;-84
2022/08/23 10:03:39;;;;;;;3.45;1.30;;;31.00;62.80;;;;;;6085723;23;20014;-85
2022/08/23 10:06:46;;;;;;;3.50;0.80;;;31.10;62.50;;;;;;6113301;23;20024;-83
2022/08/23 10:09:38;;;;;;;3.90;1.33;;;31.10;62.70;;;;;;6098649;23;19998;-85
2022/08/23 10:12:24;;;;;;;2.83;0.90;;;31.30;62.40;;;;;;6102025;23;19998;-84
2022/08/23 10:15:10;;;;;;;3.00;1.00;;;31.40;61.90;;;;;;6100442;23;20002;-83
2022/08/23 10:18:00;;;;;;;2.80;0.80;;;31.50;61.10;;;;;;6099974;23;20008;-84
2022/08/23 10:20:46;;;;;;;3.42;0.80;;;31.70;61.10;;;;;;6106188;23;20002;-84
2022/08/23 10:23:42;;;;;;;7.70;1.42;;;31.90;60.80;;;;;;6080992;23;20009;-84
2022/08/23 10:26:38;;;;;;;2.33;0.80;;;32.00;60.20;;;;;;6081825;23;20017;-85
2022/08/23 10:29:39;;;;;;;2.47;0.93;;;32.30;60.00;;;;;;6114383;23;20335;-85
2022/08/23 10:32:20;;;;;;;3.67;0.82;;;32.50;59.50;;;;;;6129256;23;20013;-85
2022/08/23 10:35:35;;;;;;;4.75;1.05;;;32.80;59.10;;;;;;6087323;23;20013;-84
2022/08/23 10:38:28;;;;;;;2.83;1.30;;;33.00;58.60;;;;;;6104718;23;20014;-84
2022/08/23 10:41:08;;;;;;;4.47;1.40;;;33.30;58.50;;;;;;6080402;23;20010;-84
2022/08/23 10:44:21;;;;;;;4.55;1.75;;;33.50;57.80;;;;;;6054480;23;20010;-84
2022/08/23 10:47:10;;;;;;;4.55;1.23;;;33.80;57.30;;;;;;6079877;23;20013;-85
2022/08/23 10:49:55;;;;;;;3.80;1.08;;;33.80;56.70;;;;;;6089102;23;20013;-85
2022/08/23 10:53:11;;;;;;;5.25;1.25;;;33.70;56.70;;;;;;6126912;23;20014;-85
2022/08/23 10:56:02;;;;;;;2.78;1.10;;;33.50;56.70;;;;;;6103724;23;20021;-84
2022/08/23 10:58:46;;;;;;;5.55;1.48;;;33.60;56.50;;;;;;6127464;23;20013;-84
2022/08/23 11:01:45;;;;;;;4.20;1.33;;;33.70;55.50;;;;;;6103509;23;20009;-84
2022/08/23 11:04:37;;;;;;;6.20;1.10;;;34.00;55.10;;;;;;6071909;23;20009;-84
2022/08/23 11:07:42;;;;;;;4.60;1.55;;;34.20;55.10;;;;;;6106054;23;20006;-84
2022/08/23 11:10:47;;;;;;;4.07;1.05;;;34.70;53.90;;;;;;6078126;23;20033;-84
2022/08/23 11:13:21;;;;;;;3.42;1.20;;;35.10;53.90;;;;;;6077977;23;20014;-82
2022/08/23 11:16:08;;;;;;;5.72;1.20;;;35.60;53.00;;;;;;6079018;23;20025;-84
2022/08/23 11:18:46;;;;;;;6.47;1.42;;;35.70;52.40;;;;;;6077298;23;20002;-82
2022/08/23 11:21:29;;;;;;;4.13;1.33;;;35.90;52.10;;;;;;6091275;23;20009;-81
2022/08/23 11:24:11;;;;;;;4.55;0.95;;;36.20;52.00;;;;;;6101723;23;20026;-82
2022/08/23 11:27:08;;;;;;;6.60;1.30;;;36.60;50.60;;;;;;6058058;23;20343;-81
2022/08/23 11:29:55;;;;;;;2.95;1.20;;;36.80;50.00;;;;;;6076881;23;20005;-83
2022/08/23 11:32:40;;;;;;;2.05;0.75;;;37.20;48.70;;;;;;6077797;23;20018;-84
2022/08/23 11:35:45;;;;;;;2.50;0.80;;;37.40;48.30;;;;;;6078348;23;20010;-83
2022/08/23 11:38:42;;;;;;;3.10;0.70;;;37.70;47.60;;;;;;6081678;23;20017;-84
2022/08/23 11:41:32;;;;;;;2.92;0.70;;;38.10;47.40;;;;;;6081076;23;20010;-84
2022/08/23 11:44:19;;;;;;;3.42;1.00;;;38.40;46.40;;;;;;6124950;23;20010;-84
2022/08/23 11:46:52;;;;;;;3.22;0.90;;;38.70;46.40;;;;;;6094574;23;20006;-84
2022/08/23 11:50:10;;;;;;;5.53;1.30;;;39.00;46.40;;;;;;6093695;23;20024;-85
2022/08/23 11:53:18;;;;;;;2.45;0.80;;;39.30;45.50;;;;;;6110567;23;20029;-83
2022/08/23 11:56:15;;;;;;;1.93;0.73;;;39.60;44.70;;;;;;6079609;23;20323;-84
2022/08/23 11:59:14;;;;;;;3.42;1.20;;;39.80;45.30;;;;;;6078729;23;20012;-85
2022/08/23 12:01:46;;;;;;;5.80;1.05;;;40.10;43.50;;;;;;6074591;23;20342;-83
2022/08/23 12:04:52;;;;;;;3.97;1.10;;;39.80;44.10;;;;;;6074893;23;20014;-85
2022/08/23 12:08:53;;;;;;;2.80;0.98;;;39.60;44.00;;;;;;6052099;23;20010;-83
2022/08/23 12:12:16;;;;;;;5.45;1.20;;;38.80;44.90;;;;;;6097200;23;20007;-84
2022/08/23 12:15:02;;;;;;;2.67;0.80;;;39.10;44.60;;;;;;6075030;23;20006;-84
2022/08/23 12:17:46;;;;;;;4.50;0.90;;;39.10;44.40;;;;;;6052041;23;20010;-84
2022/08/23 12:20:29;;;;;;;2.63;0.95;;;38.50;44.60;;;;;;6049850;23;20006;-83
2022/08/23 12:23:15;;;;;;;2.97;0.80;;;37.70;45.40;;;;;;6075892;23;20466;-83
2022/08/23 12:30:20;;;;;;;5.10;0.80;;;37.60;46.30;;;;;;6076360;23;20018;-87
2022/08/23 12:33:27;;;;;;;3.87;0.90;;;38.20;46.00;;;;;;6071003;23;20007;-85
2022/08/23 12:36:38;;;;;;;3.35;0.98;;;38.90;45.50;;;;;;6074907;23;20014;-82
2022/08/23 12:39:24;;;;;;;2.60;1.02;;;39.50;45.10;;;;;;6099535;23;20010;-85
2022/08/23 12:42:24;;;;;;;2.42;0.93;;;39.90;44.20;;;;;;6081438;23;20010;-85
2022/08/23 12:45:47;;;;;;;2.63;1.05;;;40.00;44.20;;;;;;6083050;23;20010;-84
2022/08/23 12:48:57;;;;;;;3.63;1.15;;;39.60;43.90;;;;;;6078173;23;20007;-83
2022/08/23 12:51:28;;;;;;;3.33;0.90;;;39.90;43.70;;;;;;6081599;23;20105;-86
2022/08/23 12:54:15;;;;;;;5.15;1.13;;;39.80;43.60;;;;;;6055735;23;20021;-86
2022/08/23 12:56:58;;;;;;;5.57;1.35;;;38.90;44.10;;;;;;6053979;23;20010;-84
2022/08/23 13:00:05;;;;;;;3.65;0.80;;;38.20;45.20;;;;;;6053399;23;20010;-84
2022/08/23 13:02:42;;;;;;;2.78;0.80;;;37.50;45.60;;;;;;6074893;23;20021;-84
2022/08/23 13:05:22;;;;;;;4.03;1.08;;;37.50;45.80;;;;;;6050356;23;20014;-85
2022/08/23 13:08:03;;;;;;;2.97;0.67;;;37.30;46.20;;;;;;6075680;23;20419;-84
2022/08/23 13:12:12;;;;;;;3.60;0.80;;;37.00;46.10;;;;;;6010935;23;20240;-84
2022/08/23 13:16:23;;;;;;;3.22;1.10;;;36.70;46.70;;;;;;6005781;23;20024;-85
2022/08/23 13:22:36;;;;;;;3.38;0.80;;;36.60;46.60;;;;;;6017945;23;20458;-84
2022/08/23 13:25:53;;;;;;;2.80;0.80;;;36.10;47.30;;;;;;6073198;23;20018;-83
2022/08/23 13:28:44;;;;;;;;;;;;;;;;;;;;;
2022/08/23 13:32:08;;;;;;;2.25;0.73;;;34.80;48.60;;;;;;6070018;23;20010;-83
2022/08/23 13:38:52;;;;;;;2.13;0.73;;;33.90;50.10;;;;;;6070632;23;20014;-83
2022/08/23 13:42:03;;;;;;;2.30;0.63;;;33.60;50.20;;;;;;6048451;23;20013;-83
2022/08/23 13:45:01;;;;;;;2.63;0.90;;;34.10;50.20;;;;;;6093406;23;20018;-83
2022/08/23 13:48:15;;;;;;;3.72;0.95;;;36.40;48.20;;;;;;6081543;23;20010;-83
2022/08/23 13:51:02;;;;;;;2.53;0.70;;;38.30;46.40;;;;;;6048191;23;20006;-83
2022/08/23 13:54:53;;;;;;;;;;;;;;;;;;;;;
2022/08/23 13:58:12;;;;;;;;;;;;;;;;;;;;;
2022/08/23 14:05:33;;;;;;;3.45;0.90;;;40.30;43.30;;;;;;6073342;23;20021;-84
2022/08/23 14:09:32;;;;;;;5.03;1.40;;;40.30;43.70;;;;;;6090470;23;20355;-85
2022/08/23 14:13:35;;;;;;;;;;;;;;;;;;;;;
2022/08/23 14:16:41;;;;;;;3.38;0.60;;;41.60;41.60;;;;;;6093531;23;20014;-84
2022/08/23 14:20:18;;;;;;;;;;;;;;;;;;;;;
2022/08/23 14:23:20;;;;;;;2.42;0.65;;;42.00;41.30;;;;;;6094255;23;20013;-82
2022/08/23 14:27:06;;;;;;;2.78;0.80;;;40.70;42.10;;;;;;6071935;23;20339;-84
2022/08/23 14:33:30;;;;;;;2.00;0.60;;;41.00;41.40;;;;;;6080493;23;20014;-85
2022/08/23 14:37:26;;;;;;;2.17;0.50;;;41.70;40.80;;;;;;6037626;23;20014;-85
2022/08/23 14:45:41;;;;;;;2.92;0.75;;;43.30;39.80;;;;;;6072375;23;20026;-86
2022/08/23 14:49:02;;;;;;;1.80;0.70;;;43.50;38.80;;;;;;6051415;23;20351;-84
2022/08/23 14:52:30;;;;;;;2.22;0.52;;;42.70;39.10;;;;;;6093435;23;20025;-85
2022/08/23 14:58:46;;;;;;;2.70;0.47;;;38.60;42.40;;;;;;6041244;23;20007;-84
2022/08/23 15:04:55;;;;;;;3.35;0.68;;;35.90;45.60;;;;;;6020130;23;20131;-84
2022/08/23 15:08:16;;;;;;;2.90;0.52;;;34.90;47.10;;;;;;6039267;23;20011;-84
2022/08/23 15:11:43;;;;;;;1.52;0.43;;;34.30;47.30;;;;;;6007860;23;20010;-83
2022/08/23 15:15:12;;;;;;;1.35;0.43;;;33.80;48.30;;;;;;6072335;23;20014;-84
2022/08/23 15:25:28;;;;;;;1.90;0.70;;;32.70;50.30;;;;;;6067400;23;20011;-83
2022/08/23 15:32:12;;;;;;;1.10;0.40;;;32.30;51.30;;;;;;6061725;23;20011;-83
2022/08/23 15:35:01;;;;;;;0.82;0.35;;;32.20;51.50;;;;;;6076629;23;20015;-84
2022/08/23 15:41:32;;;;;;;2.15;0.50;;;31.90;52.00;;;;;;6073562;23;20427;-83
2022/08/23 15:44:48;;;;;;;1.25;0.50;;;31.70;52.10;;;;;;6039624;23;20003;-83